Time;durP1;ratioP1;P1;durP2;ratioP2;P2;SDS_P1;SDS_P2;PMS_P1;PMS_P2;Temp;Humidity;BMP_temperature;BMP_pressure;BME280_temperature;BME280_humidity;BME280_pressure;Samples;Min_cycle;Max_cycle;Signal;HPM_P1;HPM_P2
2021/12/28 00:01:01;;;;;;;26.65;16.30;;;2.60;99.90;;;;;;5090410;28;20237;-70
2021/12/28 00:03:30;;;;;;;28.40;17.30;;;2.60;99.90;;;;;;5089928;28;20257;-70
2021/12/28 00:06:00;;;;;;;28.85;19.83;;;2.60;99.90;;;;;;5079268;28;20802;-70
2021/12/28 00:08:29;;;;;;;29.65;17.65;;;2.70;99.90;;;;;;5066734;28;20191;-72
2021/12/28 00:10:56;;;;;;;26.98;17.30;;;2.60;99.90;;;;;;5064695;28;20594;-69
2021/12/28 00:13:28;;;;;;;25.67;17.90;;;2.60;99.90;;;;;;5063135;28;20235;-68
2021/12/28 00:16:19;;;;;;;27.10;17.92;;;2.70;99.90;;;;;;5061982;28;20284;-72
2021/12/28 00:18:46;;;;;;;32.85;17.17;;;2.70;99.90;;;;;;5061551;28;20293;-70
2021/12/28 00:21:16;;;;;;;28.55;17.27;;;2.80;99.90;;;;;;5061540;28;20205;-71
2021/12/28 00:23:43;;;;;;;24.70;17.60;;;2.70;99.90;;;;;;5060675;28;20201;-70
2021/12/28 00:26:14;;;;;;;27.25;17.00;;;2.80;99.90;;;;;;5061706;28;20225;-70
2021/12/28 00:28:44;;;;;;;27.77;18.13;;;2.80;99.90;;;;;;5061659;28;20399;-70
2021/12/28 00:31:15;;;;;;;30.10;18.77;;;2.70;99.90;;;;;;5060661;28;20205;-71
2021/12/28 00:33:44;;;;;;;33.22;18.45;;;2.70;99.90;;;;;;5068858;28;20212;-71
2021/12/28 00:36:13;;;;;;;24.60;16.65;;;2.70;99.90;;;;;;5065459;28;20312;-72
2021/12/28 00:38:43;;;;;;;23.75;15.50;;;2.70;99.90;;;;;;5060842;28;20207;-70
2021/12/28 00:41:11;;;;;;;28.75;16.92;;;2.70;99.90;;;;;;5060752;28;20201;-69
2021/12/28 00:43:39;;;;;;;22.23;15.75;;;2.80;99.90;;;;;;5061730;28;20197;-70
2021/12/28 00:46:09;;;;;;;21.33;15.55;;;2.80;99.90;;;;;;5060741;28;20221;-71
2021/12/28 00:48:37;;;;;;;28.17;16.65;;;2.80;99.90;;;;;;5060281;28;20201;-71
2021/12/28 00:51:06;;;;;;;26.85;17.30;;;2.80;99.90;;;;;;5059547;28;20197;-69
2021/12/28 00:53:34;;;;;;;23.25;16.38;;;2.80;99.90;;;;;;5059950;28;20201;-70
2021/12/28 00:56:04;;;;;;;28.52;17.23;;;2.80;99.90;;;;;;5060224;28;20229;-70
2021/12/28 00:58:32;;;;;;;23.08;15.57;;;2.70;99.90;;;;;;5060062;28;20747;-72
2021/12/28 01:01:01;;;;;;;26.75;17.02;;;2.70;99.90;;;;;;5060143;28;20200;-71
2021/12/28 01:03:29;;;;;;;23.63;17.58;;;2.70;99.90;;;;;;5059193;28;20716;-70
2021/12/28 01:05:56;;;;;;;26.15;17.33;;;2.70;99.90;;;;;;5059335;28;20254;-70
2021/12/28 01:08:26;;;;;;;24.70;16.60;;;2.70;99.90;;;;;;5059266;28;20494;-69
2021/12/28 01:10:55;;;;;;;25.15;15.75;;;2.60;99.90;;;;;;5059773;28;20728;-69
2021/12/28 01:13:24;;;;;;;26.55;17.38;;;2.60;99.90;;;;;;5058697;28;20221;-66
2021/12/28 01:15:53;;;;;;;25.17;16.17;;;2.60;99.90;;;;;;5060077;28;20233;-68
2021/12/28 01:18:22;;;;;;;29.48;16.33;;;2.50;99.90;;;;;;5059681;28;20209;-66
2021/12/28 01:20:51;;;;;;;25.95;17.05;;;2.50;99.90;;;;;;5059403;28;20197;-69
2021/12/28 01:23:19;;;;;;;27.33;15.70;;;2.50;99.90;;;;;;5059124;28;20788;-69
2021/12/28 01:25:48;;;;;;;28.90;16.98;;;2.60;99.90;;;;;;5059501;28;20221;-69
2021/12/28 01:28:16;;;;;;;23.08;15.38;;;2.60;99.90;;;;;;5069313;28;20563;-68
2021/12/28 01:30:47;;;;;;;26.08;18.52;;;2.50;99.90;;;;;;5080855;28;20192;-69
2021/12/28 01:33:14;;;;;;;24.17;16.40;;;2.50;99.90;;;;;;5061351;28;20209;-70
2021/12/28 01:35:42;;;;;;;20.35;14.65;;;2.40;99.90;;;;;;5058483;28;20912;-70
2021/12/28 01:38:10;;;;;;;24.02;15.98;;;2.40;99.90;;;;;;5059526;28;20474;-71
2021/12/28 01:40:41;;;;;;;25.30;16.75;;;2.40;99.90;;;;;;5059163;28;20201;-72
2021/12/28 01:43:12;;;;;;;28.08;16.88;;;2.30;99.90;;;;;;5058768;28;20211;-71
2021/12/28 01:45:43;;;;;;;23.80;17.02;;;2.30;99.90;;;;;;5058083;28;20259;-70
2021/12/28 01:48:15;;;;;;;25.35;16.20;;;2.20;99.90;;;;;;5059089;28;20208;-69
2021/12/28 01:50:44;;;;;;;27.80;16.05;;;2.20;99.90;;;;;;5058445;28;20662;-70
2021/12/28 01:53:12;;;;;;;27.83;16.90;;;2.20;99.90;;;;;;5058725;28;20296;-70
2021/12/28 01:55:42;;;;;;;24.85;17.17;;;2.10;99.90;;;;;;5058679;28;20224;-69
2021/12/28 01:58:10;;;;;;;24.90;16.05;;;2.10;99.90;;;;;;5059172;28;20344;-69
2021/12/28 02:00:41;;;;;;;30.35;17.42;;;2.00;99.90;;;;;;5062048;28;20240;-69
2021/12/28 02:03:11;;;;;;;25.58;17.13;;;2.00;99.90;;;;;;5058284;28;20905;-69
2021/12/28 02:05:41;;;;;;;27.58;17.05;;;1.90;99.90;;;;;;5058615;28;20232;-70
2021/12/28 02:08:12;;;;;;;28.63;16.73;;;2.00;99.90;;;;;;5058174;28;20201;-69
2021/12/28 02:10:41;;;;;;;30.58;17.50;;;2.10;99.90;;;;;;5058505;28;20861;-70
2021/12/28 02:13:09;;;;;;;32.10;18.33;;;2.10;99.90;;;;;;5058525;28;20207;-69
2021/12/28 02:15:38;;;;;;;28.00;16.63;;;2.10;99.90;;;;;;5058733;28;20257;-69
2021/12/28 02:18:09;;;;;;;26.42;17.33;;;2.20;99.90;;;;;;5058472;28;20651;-69
2021/12/28 02:20:39;;;;;;;28.55;17.00;;;2.20;99.90;;;;;;5058900;28;20211;-70
2021/12/28 02:23:08;;;;;;;27.13;17.20;;;2.30;99.90;;;;;;5058940;28;20204;-70
2021/12/28 02:25:37;;;;;;;29.00;20.02;;;2.40;99.90;;;;;;5058323;28;20228;-69
2021/12/28 02:28:07;;;;;;;31.02;16.88;;;2.40;99.90;;;;;;5058936;28;20200;-69
2021/12/28 02:30:36;;;;;;;32.83;18.77;;;2.40;99.90;;;;;;5059446;28;20231;-69
2021/12/28 02:33:05;;;;;;;24.77;16.40;;;2.50;99.90;;;;;;5059113;28;20633;-69
2021/12/28 02:35:35;;;;;;;27.65;16.30;;;2.50;99.90;;;;;;5059119;28;20229;-69
2021/12/28 02:38:05;;;;;;;27.73;16.52;;;2.60;99.90;;;;;;5059526;28;20288;-71
2021/12/28 02:40:35;;;;;;;26.48;17.20;;;2.60;99.90;;;;;;5059953;28;20217;-72
2021/12/28 02:43:05;;;;;;;24.77;16.45;;;2.60;99.90;;;;;;5058424;28;20885;-72
2021/12/28 02:45:35;;;;;;;27.60;19.63;;;2.60;99.90;;;;;;5058589;28;20338;-71
2021/12/28 02:48:04;;;;;;;29.17;18.73;;;2.60;99.90;;;;;;5058158;28;20211;-68
2021/12/28 02:50:35;;;;;;;25.13;18.10;;;2.60;99.90;;;;;;5057975;28;20196;-68
2021/12/28 02:53:04;;;;;;;30.10;19.48;;;2.60;99.90;;;;;;5057795;28;20225;-68
2021/12/28 02:55:34;;;;;;;25.77;16.13;;;2.60;99.90;;;;;;5057691;28;20239;-69
2021/12/28 02:58:04;;;;;;;33.20;18.25;;;2.70;99.90;;;;;;5058338;28;20207;-68
2021/12/28 03:00:35;;;;;;;27.95;16.70;;;2.60;99.90;;;;;;5057749;28;20715;-68
2021/12/28 03:03:06;;;;;;;30.02;17.90;;;2.60;99.90;;;;;;5058315;28;20227;-69
2021/12/28 03:05:35;;;;;;;33.85;19.30;;;2.60;99.90;;;;;;5057747;28;20217;-69
2021/12/28 03:08:05;;;;;;;26.58;17.70;;;2.60;99.90;;;;;;5057974;28;20201;-70
2021/12/28 03:10:33;;;;;;;30.77;19.20;;;2.70;99.90;;;;;;5057872;28;20884;-68
2021/12/28 03:13:01;;;;;;;31.30;19.48;;;2.60;99.90;;;;;;5059342;28;20207;-68
2021/12/28 03:15:29;;;;;;;32.70;20.38;;;2.60;99.90;;;;;;5061768;28;20239;-69
2021/12/28 03:17:56;;;;;;;28.50;20.15;;;2.60;99.90;;;;;;5063475;28;20205;-68
2021/12/28 03:20:24;;;;;;;33.85;20.20;;;2.60;99.90;;;;;;5063267;28;20205;-71
2021/12/28 03:22:52;;;;;;;36.35;20.33;;;2.60;99.90;;;;;;5062210;28;20197;-71
2021/12/28 03:25:21;;;;;;;29.60;18.35;;;2.70;99.90;;;;;;5061111;28;20213;-72
2021/12/28 03:27:50;;;;;;;30.27;19.05;;;2.70;99.90;;;;;;5062232;28;20201;-70
2021/12/28 03:30:18;;;;;;;27.13;18.30;;;2.70;99.90;;;;;;5061307;28;20204;-71
2021/12/28 03:32:46;;;;;;;32.75;18.27;;;2.70;99.90;;;;;;5060785;28;20209;-70
2021/12/28 03:35:16;;;;;;;32.45;19.42;;;2.70;99.90;;;;;;5060850;28;20224;-69
2021/12/28 03:37:44;;;;;;;30.65;19.20;;;2.70;99.90;;;;;;5060653;28;20197;-69
2021/12/28 03:40:14;;;;;;;31.60;19.50;;;2.70;99.90;;;;;;5060831;28;20201;-72
2021/12/28 03:42:44;;;;;;;33.95;19.90;;;2.80;99.90;;;;;;5060828;28;20193;-70
2021/12/28 03:45:14;;;;;;;31.63;20.08;;;2.80;99.90;;;;;;5060316;28;20233;-71
2021/12/28 03:47:42;;;;;;;33.53;19.65;;;2.80;99.90;;;;;;5060902;28;20235;-71
2021/12/28 03:50:12;;;;;;;32.38;18.92;;;2.70;99.90;;;;;;5060359;28;20842;-70
2021/12/28 03:52:41;;;;;;;37.63;21.92;;;2.70;99.90;;;;;;5060321;28;20201;-69
2021/12/28 03:55:10;;;;;;;31.13;20.17;;;2.70;99.90;;;;;;5060211;28;20325;-69
2021/12/28 03:57:39;;;;;;;31.65;18.70;;;2.60;99.90;;;;;;5061423;28;20288;-72
2021/12/28 04:00:13;;;;;;;37.45;22.13;;;2.60;99.90;;;;;;5060155;28;20229;-72
2021/12/28 04:02:42;;;;;;;30.90;19.60;;;2.60;99.90;;;;;;5060957;28;20220;-69
2021/12/28 04:05:10;;;;;;;31.65;19.80;;;2.70;99.90;;;;;;5060173;28;20273;-71
2021/12/28 04:07:39;;;;;;;33.28;20.20;;;2.70;99.90;;;;;;5060539;28;20197;-71
2021/12/28 04:10:09;;;;;;;36.22;21.63;;;2.60;99.90;;;;;;5060323;28;20219;-69
2021/12/28 04:12:38;;;;;;;33.47;20.08;;;2.60;99.90;;;;;;5059850;28;20286;-70
2021/12/28 04:15:08;;;;;;;27.42;18.73;;;2.60;99.90;;;;;;5059689;28;20675;-71
2021/12/28 04:17:38;;;;;;;35.88;20.40;;;2.60;99.90;;;;;;5059896;28;20227;-71
2021/12/28 04:20:09;;;;;;;33.85;20.90;;;2.60;99.90;;;;;;5059973;28;20204;-70
2021/12/28 04:22:37;;;;;;;31.02;19.02;;;2.70;99.90;;;;;;5059973;28;20209;-70
2021/12/28 04:25:06;;;;;;;31.02;19.27;;;2.70;99.90;;;;;;5058819;28;20201;-71
2021/12/28 04:27:35;;;;;;;34.28;19.50;;;2.70;99.90;;;;;;5060155;28;20188;-68
2021/12/28 04:30:04;;;;;;;33.83;21.00;;;2.60;99.90;;;;;;5059990;28;20193;-71
2021/12/28 04:32:31;;;;;;;33.17;20.75;;;2.60;99.90;;;;;;5060390;28;20205;-71
2021/12/28 04:35:01;;;;;;;34.00;20.25;;;2.60;99.90;;;;;;5060184;28;20793;-72
2021/12/28 04:37:31;;;;;;;29.90;21.00;;;2.50;99.90;;;;;;5075909;28;20371;-70
2021/12/28 04:39:59;;;;;;;30.00;18.50;;;2.50;99.90;;;;;;5079941;28;20264;-71
2021/12/28 04:42:29;;;;;;;32.90;21.25;;;2.50;99.90;;;;;;5059546;28;20226;-71
2021/12/28 04:44:57;;;;;;;37.30;20.45;;;2.50;99.90;;;;;;5059759;28;20212;-71
2021/12/28 04:47:25;;;;;;;27.98;17.90;;;2.50;99.90;;;;;;5059750;28;20200;-69
2021/12/28 04:49:52;;;;;;;34.55;20.98;;;2.40;99.90;;;;;;5059115;28;20233;-68
2021/12/28 04:52:22;;;;;;;32.75;20.00;;;2.40;99.90;;;;;;5059263;28;20680;-68
2021/12/28 04:54:50;;;;;;;31.13;19.02;;;2.30;99.90;;;;;;5059303;28;20205;-68
2021/12/28 04:57:18;;;;;;;30.58;18.67;;;2.40;99.90;;;;;;5058867;28;20217;-70
2021/12/28 04:59:45;;;;;;;33.08;21.27;;;2.40;99.90;;;;;;5060057;28;20204;-71
2021/12/28 05:02:13;;;;;;;30.25;18.70;;;2.40;99.90;;;;;;5060437;28;20215;-70
2021/12/28 05:04:41;;;;;;;35.72;20.42;;;2.40;99.90;;;;;;5058744;28;20279;-70
2021/12/28 05:07:09;;;;;;;34.67;21.20;;;2.40;99.90;;;;;;5058521;28;20224;-70
2021/12/28 05:09:38;;;;;;;33.10;19.50;;;2.40;99.90;;;;;;5059257;28;20283;-70
2021/12/28 05:12:07;;;;;;;36.58;20.63;;;2.50;99.90;;;;;;5059468;28;20207;-71
2021/12/28 05:14:39;;;;;;;30.58;19.25;;;2.60;99.90;;;;;;5059291;28;20201;-71
2021/12/28 05:17:07;;;;;;;34.33;19.52;;;2.60;99.90;;;;;;5060025;28;20240;-71
2021/12/28 05:19:35;;;;;;;29.00;19.23;;;2.60;99.90;;;;;;5060348;28;20259;-70
2021/12/28 05:22:04;;;;;;;32.92;19.85;;;2.60;99.90;;;;;;5059441;28;20287;-71
2021/12/28 05:24:32;;;;;;;37.00;21.17;;;2.70;99.90;;;;;;5058813;28;20204;-70
2021/12/28 05:27:01;;;;;;;29.40;20.10;;;2.70;99.90;;;;;;5058276;28;20463;-69
2021/12/28 05:29:29;;;;;;;35.22;21.88;;;2.80;99.90;;;;;;5058639;28;20211;-69
2021/12/28 05:31:57;;;;;;;32.13;19.55;;;2.80;99.90;;;;;;5058941;28;20199;-69
2021/12/28 05:34:25;;;;;;;29.30;20.20;;;2.90;99.90;;;;;;5059020;28;20441;-71
2021/12/28 05:36:53;;;;;;;32.22;19.35;;;2.90;99.90;;;;;;5058244;28;20769;-69
2021/12/28 05:39:21;;;;;;;33.42;21.13;;;3.00;99.90;;;;;;5058450;28;20201;-69
2021/12/28 05:41:48;;;;;;;30.77;21.35;;;3.10;99.90;;;;;;5058060;28;20205;-69
2021/12/28 05:44:18;;;;;;;31.00;19.88;;;3.10;99.90;;;;;;5058486;28;20209;-69
2021/12/28 05:46:46;;;;;;;31.00;17.88;;;3.00;99.90;;;;;;5058296;28;20213;-70
2021/12/28 05:49:14;;;;;;;28.63;19.95;;;3.00;99.90;;;;;;5058507;28;20252;-70
2021/12/28 05:51:42;;;;;;;31.08;20.23;;;2.90;99.90;;;;;;5058622;28;20208;-70
2021/12/28 05:54:11;;;;;;;28.00;17.80;;;2.90;99.90;;;;;;5058249;28;20222;-70
2021/12/28 05:56:41;;;;;;;31.90;18.92;;;3.00;99.90;;;;;;5058826;28;20225;-70
2021/12/28 05:59:09;;;;;;;33.72;20.00;;;3.00;99.90;;;;;;5058864;28;20200;-68
2021/12/28 06:01:38;;;;;;;30.67;19.52;;;3.00;99.90;;;;;;5058014;28;20197;-69
2021/12/28 06:04:07;;;;;;;33.22;19.67;;;3.00;99.90;;;;;;5057941;28;20232;-68
2021/12/28 06:06:35;;;;;;;29.85;19.05;;;3.00;99.90;;;;;;5057630;28;20248;-68
2021/12/28 06:09:04;;;;;;;33.92;20.77;;;3.00;99.90;;;;;;5057803;28;20200;-68
2021/12/28 06:11:32;;;;;;;33.08;19.20;;;3.00;99.90;;;;;;5057859;28;20683;-69
2021/12/28 06:13:59;;;;;;;25.95;18.67;;;3.00;99.90;;;;;;5057584;28;20679;-67
2021/12/28 06:16:34;;;;;;;37.60;19.83;;;3.00;99.90;;;;;;5057697;28;20233;-69
2021/12/28 06:19:03;;;;;;;35.50;19.40;;;3.00;99.90;;;;;;5057853;28;20205;-69
2021/12/28 06:21:32;;;;;;;30.10;19.25;;;3.00;99.90;;;;;;5058370;28;20278;-69
2021/12/28 06:24:00;;;;;;;32.25;20.95;;;2.90;99.90;;;;;;5059602;28;20209;-70
2021/12/28 06:26:28;;;;;;;32.85;19.45;;;2.90;99.90;;;;;;5058204;28;20880;-70
2021/12/28 06:28:56;;;;;;;32.47;20.40;;;2.90;99.90;;;;;;5057880;28;20810;-71
2021/12/28 06:31:28;;;;;;;30.95;20.17;;;2.90;99.90;;;;;;5058396;28;20197;-71
2021/12/28 06:33:57;;;;;;;28.45;18.60;;;2.90;99.90;;;;;;5058291;28;20355;-71
2021/12/28 06:36:27;;;;;;;36.33;20.80;;;2.90;99.90;;;;;;5057766;28;20225;-71
2021/12/28 06:38:55;;;;;;;31.83;20.80;;;2.90;99.90;;;;;;5058008;28;20220;-70
2021/12/28 06:41:24;;;;;;;28.88;18.30;;;2.90;99.90;;;;;;5058204;28;20205;-70
2021/12/28 06:43:52;;;;;;;32.95;18.98;;;2.90;99.90;;;;;;5058076;28;20738;-69
2021/12/28 06:46:20;;;;;;;28.95;19.52;;;2.90;99.90;;;;;;5057474;28;20849;-70
2021/12/28 06:48:48;;;;;;;35.40;21.90;;;2.90;99.90;;;;;;5060658;28;20266;-70
2021/12/28 06:51:16;;;;;;;32.03;20.73;;;3.00;99.90;;;;;;5061807;28;20211;-69
2021/12/28 06:53:45;;;;;;;32.83;20.65;;;2.90;99.90;;;;;;5061696;28;20207;-71
2021/12/28 06:56:13;;;;;;;38.83;21.85;;;2.90;99.90;;;;;;5062556;28;20248;-69
2021/12/28 06:58:41;;;;;;;38.08;21.05;;;2.80;99.90;;;;;;5061108;28;20243;-72
2021/12/28 07:01:09;;;;;;;29.92;19.77;;;2.70;99.90;;;;;;5064296;28;20680;-68
2021/12/28 07:03:37;;;;;;;32.20;19.70;;;2.70;99.90;;;;;;5064201;28;20207;-71
2021/12/28 07:06:06;;;;;;;31.05;20.27;;;2.70;99.90;;;;;;5063260;28;20232;-72
2021/12/28 07:08:35;;;;;;;36.38;20.27;;;2.70;99.90;;;;;;5086364;28;20189;-69
2021/12/28 07:11:04;;;;;;;35.38;21.23;;;2.70;99.90;;;;;;5075309;28;20296;-71
2021/12/28 07:13:32;;;;;;;34.75;21.67;;;2.70;99.90;;;;;;5061167;28;20211;-72
2021/12/28 07:16:00;;;;;;;33.33;20.58;;;2.70;99.90;;;;;;5061116;28;20260;-72
2021/12/28 07:18:28;;;;;;;31.13;20.63;;;2.60;99.90;;;;;;5061003;28;20221;-70
2021/12/28 07:20:58;;;;;;;31.30;19.60;;;2.60;99.90;;;;;;5061191;28;20200;-70
2021/12/28 07:23:26;;;;;;;32.75;21.80;;;2.60;99.90;;;;;;5061048;28;20834;-68
2021/12/28 07:25:54;;;;;;;35.10;23.00;;;2.70;99.90;;;;;;5059192;28;20212;-69
2021/12/28 07:28:24;;;;;;;36.28;21.60;;;2.60;99.90;;;;;;5080616;28;20279;-68
2021/12/28 07:30:53;;;;;;;33.85;20.42;;;2.60;99.90;;;;;;5081189;28;20228;-70
2021/12/28 07:33:21;;;;;;;34.75;21.70;;;2.50;99.90;;;;;;5080644;28;20211;-67
2021/12/28 07:35:49;;;;;;;40.78;21.67;;;2.60;99.90;;;;;;5080586;28;20212;-67
2021/12/28 07:38:17;;;;;;;35.55;20.80;;;2.60;99.90;;;;;;5080671;28;20220;-68
2021/12/28 07:40:46;;;;;;;41.00;23.75;;;2.70;99.90;;;;;;5072801;28;20672;-67
2021/12/28 07:43:14;;;;;;;39.72;22.20;;;2.70;99.90;;;;;;5070707;28;20188;-67
2021/12/28 07:45:44;;;;;;;39.08;21.80;;;2.70;99.90;;;;;;5080626;28;20311;-67
2021/12/28 07:48:12;;;;;;;36.97;20.92;;;2.80;99.90;;;;;;5081491;28;20829;-67
2021/12/28 07:50:40;;;;;;;41.60;21.83;;;2.80;99.90;;;;;;5081533;28;20227;-67
2021/12/28 07:53:08;;;;;;;35.97;22.20;;;2.90;99.90;;;;;;5080854;28;20295;-67
2021/12/28 07:55:36;;;;;;;38.90;22.48;;;2.90;99.90;;;;;;5081460;28;20220;-67
2021/12/28 07:58:04;;;;;;;41.08;24.63;;;2.90;99.90;;;;;;5081868;28;20231;-67
2021/12/28 08:00:32;;;;;;;42.75;23.67;;;2.90;99.90;;;;;;5080786;28;20583;-67
2021/12/28 08:03:04;;;;;;;42.92;24.17;;;2.90;99.90;;;;;;5081577;28;20208;-67
2021/12/28 08:05:32;;;;;;;36.50;24.38;;;2.90;99.90;;;;;;5081535;28;20220;-67
2021/12/28 08:08:00;;;;;;;38.63;22.55;;;2.90;99.90;;;;;;5080888;28;20704;-67
2021/12/28 08:10:28;;;;;;;41.03;23.23;;;3.00;99.90;;;;;;5080898;28;20723;-67
2021/12/28 08:12:56;;;;;;;41.92;23.63;;;3.00;99.90;;;;;;5080687;28;20211;-67
2021/12/28 08:15:26;;;;;;;40.92;23.38;;;3.00;99.90;;;;;;5080787;28;20858;-67
2021/12/28 08:17:58;;;;;;;38.60;22.20;;;3.10;99.90;;;;;;5080519;28;20410;-67
2021/12/28 08:20:27;;;;;;;36.75;22.25;;;3.10;99.90;;;;;;5080888;28;20201;-67
2021/12/28 08:22:56;;;;;;;41.08;24.80;;;3.00;99.90;;;;;;5080631;28;20522;-67
2021/12/28 08:25:24;;;;;;;41.33;25.60;;;3.10;99.90;;;;;;5080567;28;20315;-67
2021/12/28 08:27:53;;;;;;;39.22;24.67;;;3.10;99.90;;;;;;5080482;28;20200;-65
2021/12/28 08:30:21;;;;;;;46.65;25.70;;;3.20;99.90;;;;;;5080475;28;20210;-67
2021/12/28 08:32:49;;;;;;;41.90;25.73;;;3.20;99.90;;;;;;5080256;28;20208;-66
2021/12/28 08:35:18;;;;;;;43.03;24.58;;;3.10;99.90;;;;;;5079873;28;20235;-67
2021/12/28 08:37:49;;;;;;;48.45;27.50;;;3.10;99.90;;;;;;5079987;28;20679;-65
2021/12/28 08:40:17;;;;;;;36.28;23.27;;;3.10;99.90;;;;;;5080180;28;20200;-66
2021/12/28 08:42:45;;;;;;;51.50;25.90;;;3.10;99.90;;;;;;5082355;28;20208;-67
2021/12/28 08:45:14;;;;;;;49.47;27.98;;;3.00;99.90;;;;;;5084194;28;20220;-68
2021/12/28 08:47:42;;;;;;;45.53;25.77;;;3.10;99.90;;;;;;5083015;28;20231;-66
2021/12/28 08:50:11;;;;;;;49.00;27.25;;;3.10;99.90;;;;;;5093265;28;20329;-66
2021/12/28 08:52:40;;;;;;;47.65;26.92;;;3.10;99.90;;;;;;5085464;28;20272;-66
2021/12/28 08:55:18;;;;;;;49.25;26.95;;;3.20;99.90;;;;;;5085180;28;20306;-68
2021/12/28 08:57:47;;;;;;;43.13;26.42;;;3.10;99.90;;;;;;5084091;28;20841;-68
2021/12/28 09:00:18;;;;;;;48.67;27.55;;;3.10;99.90;;;;;;5083977;28;20227;-68
2021/12/28 09:02:46;;;;;;;50.10;26.52;;;3.10;99.90;;;;;;5087513;28;20203;-67
2021/12/28 09:05:14;;;;;;;45.40;26.25;;;3.10;99.90;;;;;;5088065;28;20263;-68
2021/12/28 09:07:42;;;;;;;48.30;26.00;;;3.10;99.90;;;;;;5082108;28;20196;-67
2021/12/28 09:10:10;;;;;;;53.65;27.35;;;3.00;99.90;;;;;;5080877;28;20287;-68
2021/12/28 09:12:40;;;;;;;46.20;26.70;;;3.10;99.90;;;;;;5078742;28;20197;-68
2021/12/28 09:15:09;;;;;;;46.00;27.30;;;3.20;99.90;;;;;;5079758;28;20204;-68
2021/12/28 09:17:38;;;;;;;45.30;26.33;;;3.10;99.90;;;;;;5080171;28;20197;-69
2021/12/28 09:20:10;;;;;;;42.75;25.38;;;3.20;99.90;;;;;;5079003;28;20226;-68
2021/12/28 09:22:58;;;;;;;45.67;25.35;;;3.20;99.90;;;;;;5078699;28;20832;-67
2021/12/28 09:25:26;;;;;;;45.13;27.02;;;3.20;99.90;;;;;;5062749;28;20208;-68
2021/12/28 09:27:56;;;;;;;39.60;25.05;;;3.20;99.90;;;;;;5060303;28;20211;-68
2021/12/28 09:30:25;;;;;;;48.78;26.52;;;3.20;99.90;;;;;;5060030;28;20207;-67
2021/12/28 09:32:53;;;;;;;45.08;26.52;;;3.20;99.90;;;;;;5062893;28;20185;-67
2021/12/28 09:35:21;;;;;;;51.75;29.80;;;3.20;99.90;;;;;;5067709;28;20222;-68
2021/12/28 09:37:49;;;;;;;47.47;28.15;;;3.20;99.90;;;;;;5086507;28;20830;-67
2021/12/28 09:40:17;;;;;;;44.10;26.83;;;3.20;99.90;;;;;;5074431;28;20331;-69
2021/12/28 09:42:46;;;;;;;49.05;26.92;;;3.20;99.90;;;;;;5060024;28;20813;-68
2021/12/28 09:45:15;;;;;;;54.47;26.67;;;3.00;99.90;;;;;;5059180;28;20228;-68
2021/12/28 09:47:45;;;;;;;46.55;26.05;;;3.00;99.90;;;;;;5059661;28;20208;-76
2021/12/28 09:50:15;;;;;;;49.97;29.95;;;3.00;99.90;;;;;;5059855;28;20865;-69
2021/12/28 09:52:46;;;;;;;55.13;28.83;;;3.00;99.90;;;;;;5059037;28;20205;-69
2021/12/28 09:55:15;;;;;;;52.75;27.70;;;3.00;99.90;;;;;;5059745;28;20303;-70
2021/12/28 09:57:44;;;;;;;52.10;28.95;;;3.10;99.90;;;;;;5059387;28;20732;-68
2021/12/28 10:00:15;;;;;;;51.45;28.08;;;3.10;99.90;;;;;;5058601;28;20307;-68
2021/12/28 10:03:03;;;;;;;47.10;26.95;;;3.20;99.90;;;;;;5058795;28;20219;-68
2021/12/28 10:05:33;;;;;;;47.50;28.15;;;3.20;99.90;;;;;;5058619;28;20395;-68
2021/12/28 10:08:04;;;;;;;51.47;30.20;;;3.30;99.90;;;;;;5058472;28;20207;-67
2021/12/28 10:10:34;;;;;;;51.78;27.60;;;3.40;99.90;;;;;;5058353;28;20912;-68
2021/12/28 10:13:05;;;;;;;49.13;26.63;;;3.40;99.90;;;;;;5058796;28;20216;-65
2021/12/28 10:15:36;;;;;;;52.08;28.30;;;3.40;99.90;;;;;;5058538;28;20383;-68
2021/12/28 10:18:08;;;;;;;49.50;27.92;;;3.50;99.90;;;;;;5058351;28;20293;-68
2021/12/28 10:20:38;;;;;;;45.92;27.10;;;3.50;99.90;;;;;;5058290;28;20826;-66
2021/12/28 10:23:10;;;;;;;51.05;27.58;;;3.50;99.90;;;;;;5059726;28;20675;-66
2021/12/28 10:25:41;;;;;;;58.25;27.92;;;3.50;99.90;;;;;;5062337;28;20227;-67
2021/12/28 10:28:11;;;;;;;46.55;27.10;;;3.50;99.90;;;;;;5063287;28;20770;-67
2021/12/28 10:30:42;;;;;;;56.40;28.13;;;3.60;99.90;;;;;;5063352;28;20288;-71
2021/12/28 10:33:12;;;;;;;50.00;27.92;;;3.60;99.90;;;;;;5063404;28;20832;-65
2021/12/28 10:35:42;;;;;;;49.35;28.42;;;3.80;99.90;;;;;;5063161;28;20217;-66
2021/12/28 10:38:13;;;;;;;57.30;28.75;;;3.90;99.90;;;;;;5062987;28;20201;-65
2021/12/28 10:40:43;;;;;;;52.53;29.60;;;3.90;99.90;;;;;;5063962;28;20298;-64
2021/12/28 10:43:13;;;;;;;51.60;26.67;;;3.90;99.90;;;;;;5063254;28;20204;-68
2021/12/28 10:45:45;;;;;;;48.45;26.50;;;3.90;99.90;;;;;;5063093;28;20221;-65
2021/12/28 10:48:16;;;;;;;50.58;27.40;;;4.00;99.90;;;;;;5063442;28;20205;-65
2021/12/28 10:50:46;;;;;;;49.08;25.48;;;4.00;99.90;;;;;;5063008;28;20856;-66
2021/12/28 10:53:20;;;;;;;49.22;28.55;;;4.00;99.90;;;;;;5062187;28;20287;-65
2021/12/28 10:55:53;;;;;;;45.88;26.23;;;4.00;99.90;;;;;;5062005;28;20219;-65
2021/12/28 10:58:25;;;;;;;56.08;27.23;;;4.00;99.90;;;;;;5062459;28;20236;-65
2021/12/28 11:00:55;;;;;;;46.42;27.55;;;4.00;99.90;;;;;;5061525;28;20228;-65
2021/12/28 11:03:30;;;;;;;53.08;27.77;;;4.00;99.90;;;;;;5061659;28;20209;-65
2021/12/28 11:06:00;;;;;;;47.30;28.10;;;4.10;99.90;;;;;;5061590;28;20811;-65
2021/12/28 11:08:29;;;;;;;48.15;27.45;;;4.10;99.90;;;;;;5061964;28;20783;-65
2021/12/28 11:11:00;;;;;;;52.00;28.58;;;4.10;99.90;;;;;;5061798;28;20224;-65
2021/12/28 11:13:30;;;;;;;45.08;26.98;;;4.10;99.90;;;;;;5061424;28;20204;-66
2021/12/28 11:16:01;;;;;;;54.92;27.83;;;4.10;99.90;;;;;;5061548;28;20227;-65
2021/12/28 11:18:33;;;;;;;51.65;29.65;;;4.20;99.90;;;;;;5061747;28;20209;-65
2021/12/28 11:21:13;;;;;;;55.65;30.45;;;4.20;99.90;;;;;;5062164;28;20310;-65
2021/12/28 11:23:42;;;;;;;47.63;27.95;;;4.20;99.90;;;;;;5061840;28;20691;-66
2021/12/28 11:26:16;;;;;;;48.10;28.10;;;4.20;99.90;;;;;;5060694;28;20734;-65
2021/12/28 11:28:53;;;;;;;51.90;28.67;;;4.20;99.90;;;;;;5061090;28;20203;-65
2021/12/28 11:31:24;;;;;;;44.67;29.98;;;4.20;99.90;;;;;;5061065;28;20799;-65
2021/12/28 11:34:03;;;;;;;53.58;30.75;;;4.20;99.90;;;;;;5060401;28;20794;-66
2021/12/28 11:36:34;;;;;;;46.72;28.80;;;4.20;99.90;;;;;;5061362;28;20228;-64
2021/12/28 11:39:06;;;;;;;54.22;27.70;;;4.20;99.90;;;;;;5060880;28;20285;-65
2021/12/28 11:41:34;;;;;;;53.30;30.98;;;4.20;99.90;;;;;;5061043;28;20228;-64
2021/12/28 11:44:02;;;;;;;46.85;28.85;;;4.30;99.90;;;;;;5060716;28;20205;-66
2021/12/28 11:46:31;;;;;;;51.28;29.17;;;4.30;99.90;;;;;;5060478;28;20224;-65
2021/12/28 11:48:59;;;;;;;48.90;28.83;;;4.30;99.90;;;;;;5060716;28;20234;-65
2021/12/28 11:51:28;;;;;;;54.88;31.50;;;4.30;99.90;;;;;;5060928;28;20292;-64
2021/12/28 11:53:58;;;;;;;46.63;28.42;;;4.30;99.90;;;;;;5060930;28;20205;-65
2021/12/28 11:56:30;;;;;;;56.05;31.67;;;4.40;99.90;;;;;;5060893;28;20228;-63
2021/12/28 11:59:03;;;;;;;47.72;29.60;;;4.40;99.90;;;;;;5060340;28;20211;-65
2021/12/28 12:01:42;;;;;;;51.47;28.83;;;4.40;99.90;;;;;;5061755;28;20220;-64
2021/12/28 12:04:42;;;;;;;47.80;28.40;;;4.30;99.90;;;;;;5061993;28;20814;-67
2021/12/28 12:07:17;;;;;;;48.42;27.38;;;4.30;99.90;;;;;;5055746;28;20225;-66
2021/12/28 12:10:32;;;;;;;52.30;29.67;;;4.30;99.90;;;;;;5084000;28;20261;-65
2021/12/28 12:13:25;;;;;;;50.83;27.42;;;4.20;99.90;;;;;;5048190;28;20394;-64
2021/12/28 12:15:56;;;;;;;48.15;28.13;;;4.20;99.90;;;;;;5041644;28;20220;-65
2021/12/28 12:18:31;;;;;;;55.15;30.80;;;4.20;99.90;;;;;;5061765;28;20220;-64
2021/12/28 12:21:02;;;;;;;58.47;29.27;;;4.30;99.90;;;;;;5060820;28;20791;-65
2021/12/28 12:23:42;;;;;;;50.97;28.88;;;4.30;99.90;;;;;;5060327;28;20268;-65
2021/12/28 12:26:12;;;;;;;63.72;29.92;;;4.40;99.90;;;;;;5059640;28;20316;-66
2021/12/28 12:28:43;;;;;;;52.15;30.33;;;4.50;99.90;;;;;;5060568;28;20215;-66
2021/12/28 12:31:20;;;;;;;44.63;27.70;;;4.50;99.90;;;;;;5060615;28;20197;-65
2021/12/28 12:33:50;;;;;;;48.13;27.60;;;4.50;99.90;;;;;;5059723;28;20191;-66
2021/12/28 12:36:22;;;;;;;51.90;30.00;;;4.50;99.90;;;;;;5058968;28;20792;-66
2021/12/28 12:38:53;;;;;;;52.08;29.20;;;4.50;99.90;;;;;;5059657;28;20205;-65
2021/12/28 12:41:35;;;;;;;48.17;29.75;;;4.40;99.90;;;;;;5059435;28;20217;-65
2021/12/28 12:44:09;;;;;;;55.30;31.85;;;4.30;99.90;;;;;;5059568;28;20311;-64
2021/12/28 12:46:40;;;;;;;52.10;28.77;;;4.20;99.90;;;;;;5059272;28;20895;-66
2021/12/28 12:49:14;;;;;;;54.67;29.98;;;4.20;99.90;;;;;;5059271;28;20298;-65